Time;durP1;ratioP1;P1;durP2;ratioP2;P2;SDS_P1;SDS_P2;PMS_P1;PMS_P2;Temp;Humidity;BMP_temperature;BMP_pressure;BME280_temperature;BME280_humidity;BME280_pressure;Samples;Min_cycle;Max_cycle;Signal;HPM_P1;HPM_P2
2024/04/20 00:02:25;;;;;;;0.55;0.30;;;18.70;56.40;;;;;;5261125;26;20057;-68
2024/04/20 00:04:50;;;;;;;0.88;0.40;;;18.70;55.80;;;;;;5263069;26;20013;-70
2024/04/20 00:07:16;;;;;;;0.85;0.30;;;18.70;55.80;;;;;;5257713;26;20035;-69
2024/04/20 00:09:41;;;;;;;0.32;0.25;;;18.70;55.80;;;;;;5263503;26;20034;-68
2024/04/20 00:12:08;;;;;;;0.55;0.22;;;18.70;55.70;;;;;;5254296;26;20122;-69
2024/04/20 00:14:33;;;;;;;0.55;0.30;;;18.80;55.80;;;;;;5251327;26;20018;-69
2024/04/20 00:16:59;;;;;;;1.00;0.30;;;18.70;55.60;;;;;;5251797;26;20574;-68
2024/04/20 00:19:24;;;;;;;0.73;0.35;;;18.80;55.70;;;;;;5255026;26;20002;-70
2024/04/20 00:21:50;;;;;;;0.43;0.20;;;18.80;55.70;;;;;;5257252;26;20458;-69
2024/04/20 00:24:15;;;;;;;0.25;0.22;;;18.80;55.70;;;;;;5262883;26;20003;-69
2024/04/20 00:26:41;;;;;;;0.22;0.20;;;18.80;55.70;;;;;;5265122;26;20354;-69
2024/04/20 00:29:06;;;;;;;0.22;0.22;;;18.80;55.60;;;;;;5252292;26;20035;-69
2024/04/20 00:31:32;;;;;;;0.70;0.35;;;18.80;55.60;;;;;;5252809;26;20014;-69
2024/04/20 00:33:58;;;;;;;0.35;0.17;;;18.90;55.60;;;;;;5246277;26;20013;-69
2024/04/20 00:36:24;;;;;;;0.20;0.20;;;18.90;55.40;;;;;;5258086;26;20098;-69
2024/04/20 00:38:53;;;;;;;0.50;0.30;;;18.90;55.40;;;;;;5260008;26;19998;-70
2024/04/20 00:41:19;;;;;;;0.50;0.20;;;18.90;55.40;;;;;;5257819;26;20442;-69
2024/04/20 00:43:44;;;;;;;0.25;0.25;;;18.90;55.30;;;;;;5258495;26;19999;-69
2024/04/20 00:46:10;;;;;;;0.43;0.30;;;18.90;55.30;;;;;;5264551;26;20017;-69
2024/04/20 00:48:36;;;;;;;0.40;0.25;;;19.00;55.30;;;;;;5262851;26;20003;-69
2024/04/20 00:51:02;;;;;;;0.50;0.32;;;19.00;55.30;;;;;;5256517;26;20069;-69
2024/04/20 00:53:29;;;;;;;0.60;0.30;;;19.00;55.20;;;;;;5249376;26;20014;-70
2024/04/20 00:55:55;;;;;;;1.20;0.40;;;19.00;55.20;;;;;;5256189;26;20002;-69
2024/04/20 00:58:20;;;;;;;0.55;0.30;;;19.00;55.10;;;;;;5246578;26;20360;-69
2024/04/20 01:00:48;;;;;;;0.93;0.43;;;19.00;55.10;;;;;;5248191;26;20491;-69
2024/04/20 01:03:13;;;;;;;0.47;0.30;;;19.00;55.10;;;;;;5259075;26;20418;-69
2024/04/20 01:05:39;;;;;;;0.63;0.30;;;19.00;55.10;;;;;;5256841;26;20017;-68
2024/04/20 01:08:05;;;;;;;0.47;0.30;;;19.00;55.10;;;;;;5249197;26;20010;-69
2024/04/20 01:10:31;;;;;;;0.28;0.25;;;19.00;55.10;;;;;;5246078;26;20018;-69
2024/04/20 01:13:04;;;;;;;0.38;0.30;;;18.90;55.20;;;;;;5247868;26;20611;-69
2024/04/20 01:15:30;;;;;;;0.20;0.20;;;18.90;55.20;;;;;;5249308;26;20038;-69
2024/04/20 01:17:55;;;;;;;0.52;0.40;;;18.90;55.30;;;;;;5249140;26;20444;-69
2024/04/20 01:20:21;;;;;;;0.20;0.20;;;18.80;55.40;;;;;;5253255;26;20007;-69
2024/04/20 01:22:46;;;;;;;0.68;0.20;;;18.80;55.40;;;;;;5254168;26;20017;-69
2024/04/20 01:25:13;;;;;;;0.30;0.30;;;18.80;55.50;;;;;;5244212;26;20015;-68
2024/04/20 01:27:39;;;;;;;0.85;0.30;;;18.80;55.60;;;;;;5247558;26;20019;-68
2024/04/20 01:30:08;;;;;;;0.57;0.30;;;18.70;55.70;;;;;;5253921;26;20362;-68
2024/04/20 01:32:37;;;;;;;1.02;0.40;;;18.70;55.70;;;;;;5263821;26;20023;-70
2024/04/20 01:35:03;;;;;;;0.40;0.28;;;18.70;55.80;;;;;;5251752;26;20022;-69
2024/04/20 01:37:28;;;;;;;0.52;0.50;;;18.70;55.80;;;;;;5250891;26;20487;-69
2024/04/20 01:39:54;;;;;;;0.32;0.30;;;18.70;56.00;;;;;;5260466;26;20052;-70
2024/04/20 01:42:19;;;;;;;0.50;0.30;;;18.60;55.90;;;;;;5253882;26;20006;-69
2024/04/20 01:44:45;;;;;;;0.38;0.25;;;18.60;55.90;;;;;;5249289;26;20122;-69
2024/04/20 01:47:10;;;;;;;0.30;0.30;;;18.60;55.90;;;;;;5256601;26;20003;-69
2024/04/20 01:49:36;;;;;;;0.63;0.28;;;18.60;55.80;;;;;;5262014;26;20018;-69
2024/04/20 01:52:01;;;;;;;0.75;0.57;;;18.70;55.70;;;;;;5248146;26;20034;-68
2024/04/20 01:54:27;;;;;;;1.23;0.22;;;18.70;55.70;;;;;;5261569;26;20006;-69
2024/04/20 01:56:52;;;;;;;0.20;0.20;;;18.80;55.50;;;;;;5254366;26;20010;-69
2024/04/20 01:59:18;;;;;;;0.57;0.40;;;18.80;55.30;;;;;;5249905;26;20006;-70
2024/04/20 02:01:46;;;;;;;0.10;0.10;;;19.00;55.20;;;;;;5253811;26;20020;-69
2024/04/20 02:04:11;;;;;;;0.20;0.20;;;19.10;55.00;;;;;;5256952;26;20002;-69
2024/04/20 02:06:37;;;;;;;0.45;0.32;;;19.20;54.80;;;;;;5252205;26;20021;-69
2024/04/20 02:09:02;;;;;;;0.73;0.30;;;19.20;54.60;;;;;;5252617;26;20050;-69
2024/04/20 02:11:28;;;;;;;0.75;0.35;;;19.30;54.40;;;;;;5257135;26;20002;-69
2024/04/20 02:13:53;;;;;;;0.20;0.20;;;19.40;54.30;;;;;;5240355;26;20006;-69
2024/04/20 02:16:19;;;;;;;0.20;0.20;;;19.40;54.20;;;;;;5243031;26;20046;-69
2024/04/20 02:18:44;;;;;;;0.20;0.20;;;19.50;54.20;;;;;;5236131;26;20001;-69
2024/04/20 02:21:11;;;;;;;0.10;0.10;;;19.50;54.10;;;;;;5257617;26;20003;-68
2024/04/20 02:23:38;;;;;;;0.63;0.20;;;19.50;54.10;;;;;;5264191;26;20373;-68
2024/04/20 02:26:04;;;;;;;0.20;0.10;;;19.50;54.10;;;;;;5262723;26;20018;-69
2024/04/20 02:28:29;;;;;;;0.38;0.20;;;19.50;54.00;;;;;;5256872;26;20235;-69
2024/04/20 02:30:55;;;;;;;0.20;0.13;;;19.60;54.00;;;;;;5247262;26;20017;-69
2024/04/20 02:33:20;;;;;;;2.40;0.45;;;19.60;54.00;;;;;;5245060;26;20043;-68
2024/04/20 02:35:46;;;;;;;0.22;0.20;;;19.60;54.00;;;;;;5256739;26;19998;-69
2024/04/20 02:38:11;;;;;;;0.30;0.10;;;19.70;54.00;;;;;;5263348;26;19999;-69
2024/04/20 02:40:37;;;;;;;0.20;0.20;;;19.60;54.00;;;;;;5265922;26;20022;-68
2024/04/20 02:43:03;;;;;;;0.47;0.20;;;19.60;54.00;;;;;;5250958;26;20024;-68
2024/04/20 02:45:29;;;;;;;0.30;0.20;;;19.60;54.00;;;;;;5259050;26;20007;-69
2024/04/20 02:47:54;;;;;;;0.30;0.30;;;19.60;54.00;;;;;;5257899;26;20014;-70
2024/04/20 02:50:20;;;;;;;0.10;0.10;;;19.60;54.10;;;;;;5254768;26;20342;-68
2024/04/20 02:52:47;;;;;;;0.47;0.20;;;19.60;54.00;;;;;;5246446;26;20007;-69
2024/04/20 02:55:13;;;;;;;0.25;0.20;;;19.60;54.20;;;;;;5256436;26;20756;-67
2024/04/20 02:57:38;;;;;;;0.13;0.13;;;19.50;54.20;;;;;;5254506;26;20010;-69
2024/04/20 03:00:04;;;;;;;0.10;0.10;;;19.50;54.20;;;;;;5244425;26;20006;-68
2024/04/20 03:02:32;;;;;;;0.20;0.10;;;19.50;54.20;;;;;;5255150;26;20068;-69
2024/04/20 03:04:58;;;;;;;0.20;0.20;;;19.50;54.20;;;;;;5247734;26;20008;-69
2024/04/20 03:07:25;;;;;;;0.20;0.20;;;19.50;54.20;;;;;;5251429;26;20358;-68
2024/04/20 03:09:51;;;;;;;0.10;0.10;;;19.50;54.40;;;;;;5248541;26;20471;-69
2024/04/20 03:12:16;;;;;;;0.25;0.20;;;19.50;54.40;;;;;;5250245;26;20081;-68
2024/04/20 03:14:42;;;;;;;0.40;0.10;;;19.50;55.00;;;;;;5250955;26;20022;-67
2024/04/20 03:17:08;;;;;;;0.55;0.10;;;19.40;54.40;;;;;;5248631;26;20395;-67
2024/04/20 03:19:34;;;;;;;0.10;0.10;;;19.40;54.40;;;;;;5255301;26;19998;-66
2024/04/20 03:22:00;;;;;;;0.20;0.13;;;19.40;54.40;;;;;;5243844;26;20021;-66
2024/04/20 03:24:26;;;;;;;0.30;0.10;;;19.40;54.50;;;;;;5254122;26;20006;-69
2024/04/20 03:26:51;;;;;;;0.10;0.10;;;19.40;54.40;;;;;;5265281;26;20082;-69
2024/04/20 03:29:17;;;;;;;0.10;0.10;;;19.40;54.50;;;;;;5261998;26;20353;-69
2024/04/20 03:31:43;;;;;;;0.57;0.10;;;19.40;54.50;;;;;;5238937;26;20006;-69
2024/04/20 03:34:08;;;;;;;0.10;0.10;;;19.40;54.60;;;;;;5249179;26;20007;-69
2024/04/20 03:36:34;;;;;;;0.28;0.20;;;19.40;54.50;;;;;;5253515;26;20007;-67
2024/04/20 03:39:10;;;;;;;0.10;0.10;;;19.40;54.50;;;;;;5249684;26;20017;-69
2024/04/20 03:41:35;;;;;;;0.35;0.25;;;19.40;54.50;;;;;;5263745;26;20345;-68
2024/04/20 03:44:01;;;;;;;0.10;0.10;;;19.40;54.50;;;;;;5264051;26;20008;-69
2024/04/20 03:46:26;;;;;;;0.10;0.10;;;19.40;54.60;;;;;;5246917;26;20021;-67
2024/04/20 03:48:52;;;;;;;0.10;0.10;;;19.40;54.50;;;;;;5245687;26;20007;-70
2024/04/20 03:51:17;;;;;;;0.75;0.20;;;19.40;54.60;;;;;;5248431;26;19998;-69
2024/04/20 03:53:43;;;;;;;0.10;0.10;;;19.40;54.60;;;;;;5264717;26;20049;-68
2024/04/20 03:56:08;;;;;;;0.28;0.20;;;19.40;54.50;;;;;;5251831;26;20401;-67
2024/04/20 03:58:34;;;;;;;0.28;0.20;;;19.40;54.50;;;;;;5254439;26;20006;-69
2024/04/20 04:00:59;;;;;;;0.10;0.00;;;19.40;54.50;;;;;;5262615;26;20039;-69
2024/04/20 04:03:26;;;;;;;0.10;0.03;;;19.40;54.40;;;;;;5264156;26;20021;-69
2024/04/20 04:05:54;;;;;;;0.10;0.10;;;19.40;54.50;;;;;;5257032;26;20014;-70
2024/04/20 04:08:20;;;;;;;0.05;0.00;;;19.40;54.40;;;;;;5251654;26;20002;-69
2024/04/20 04:10:45;;;;;;;0.20;0.20;;;19.40;54.40;;;;;;5262310;26;20009;-68
2024/04/20 04:13:12;;;;;;;0.20;0.10;;;19.40;54.50;;;;;;5256016;26;20525;-68
2024/04/20 04:15:38;;;;;;;0.40;0.10;;;19.40;54.40;;;;;;5256463;26;20448;-68
2024/04/20 04:18:04;;;;;;;0.10;0.10;;;19.40;54.40;;;;;;5260899;26;20014;-69
2024/04/20 04:20:29;;;;;;;0.30;0.10;;;19.40;54.40;;;;;;5249746;26;19995;-69
2024/04/20 04:22:55;;;;;;;0.20;0.10;;;19.40;54.40;;;;;;5262074;26;20042;-70
2024/04/20 04:25:20;;;;;;;0.75;0.20;;;19.50;54.40;;;;;;5255608;26;20359;-69
2024/04/20 04:27:46;;;;;;;0.10;0.10;;;19.40;54.30;;;;;;5263670;26;20465;-69
2024/04/20 04:30:11;;;;;;;0.10;0.10;;;19.50;54.40;;;;;;5258937;26;20018;-69
2024/04/20 04:32:37;;;;;;;0.10;0.10;;;19.50;54.30;;;;;;5251898;26;20470;-70
2024/04/20 04:35:02;;;;;;;0.10;0.10;;;19.40;54.20;;;;;;5256371;26;19997;-70
2024/04/20 04:37:28;;;;;;;0.10;0.10;;;19.50;54.30;;;;;;5262143;26;20013;-66
2024/04/20 04:39:56;;;;;;;0.22;0.10;;;19.50;54.20;;;;;;5254558;26;20030;-71
2024/04/20 04:42:22;;;;;;;0.73;0.10;;;19.50;54.10;;;;;;5253500;26;20013;-67
2024/04/20 04:44:47;;;;;;;0.13;0.10;;;19.50;54.10;;;;;;5250164;26;20006;-69
2024/04/20 04:47:13;;;;;;;0.60;0.10;;;19.50;54.10;;;;;;5254594;26;19998;-68
2024/04/20 04:49:38;;;;;;;0.10;0.10;;;19.50;54.20;;;;;;5246896;26;19999;-69
2024/04/20 04:52:04;;;;;;;0.00;0.00;;;19.50;54.20;;;;;;5249424;26;20011;-70
2024/04/20 04:54:29;;;;;;;0.00;0.00;;;19.50;54.10;;;;;;5273229;26;19997;-68
2024/04/20 04:56:55;;;;;;;0.10;0.10;;;19.50;54.10;;;;;;5253180;26;20338;-69
2024/04/20 04:59:22;;;;;;;0.10;0.10;;;19.60;54.20;;;;;;5249035;26;20085;-68
2024/04/20 05:01:50;;;;;;;0.73;0.08;;;19.60;54.20;;;;;;5257566;26;20358;-69
2024/04/20 05:04:16;;;;;;;0.10;0.10;;;19.60;54.10;;;;;;5252307;26;19999;-70
2024/04/20 05:06:41;;;;;;;0.17;0.17;;;19.60;54.20;;;;;;5263803;26;19998;-70
2024/04/20 05:09:07;;;;;;;1.45;0.10;;;19.50;54.10;;;;;;5253507;26;20071;-70
2024/04/20 05:11:33;;;;;;;0.10;0.00;;;19.50;54.10;;;;;;5255232;26;20002;-69
2024/04/20 05:13:58;;;;;;;0.00;0.00;;;19.50;54.20;;;;;;5254164;26;20077;-69
2024/04/20 05:16:24;;;;;;;0.20;0.10;;;19.50;54.20;;;;;;5254083;26;20014;-70
2024/04/20 05:18:49;;;;;;;0.10;0.00;;;19.50;54.20;;;;;;5247679;26;20021;-69
2024/04/20 05:21:15;;;;;;;0.10;0.10;;;19.50;54.30;;;;;;5262650;26;20225;-67
2024/04/20 05:23:40;;;;;;;0.00;0.00;;;19.50;54.20;;;;;;5247902;26;20014;-70
2024/04/20 05:26:06;;;;;;;0.10;0.10;;;19.50;54.20;;;;;;5257437;26;20011;-69
2024/04/20 05:28:33;;;;;;;0.13;0.10;;;19.50;54.30;;;;;;5261129;26;20077;-70
2024/04/20 05:30:58;;;;;;;0.10;0.10;;;19.50;54.20;;;;;;5264008;26;19998;-69
2024/04/20 05:33:24;;;;;;;0.10;0.10;;;19.50;54.30;;;;;;5257210;26;20322;-70
2024/04/20 05:35:49;;;;;;;0.10;0.10;;;19.50;54.30;;;;;;5257042;26;20003;-70
2024/04/20 05:38:15;;;;;;;0.10;0.10;;;19.40;54.30;;;;;;5255859;26;20010;-70
2024/04/20 05:40:40;;;;;;;0.15;0.00;;;19.40;54.40;;;;;;5251000;26;20418;-68
2024/04/20 05:43:06;;;;;;;0.20;0.10;;;19.40;54.40;;;;;;5244354;26;20181;-70
2024/04/20 05:45:33;;;;;;;0.00;0.00;;;19.40;54.50;;;;;;5237564;26;20017;-67
2024/04/20 05:47:59;;;;;;;0.10;0.10;;;19.40;54.40;;;;;;5251684;26;20101;-69
2024/04/20 05:50:24;;;;;;;0.10;0.10;;;19.40;54.40;;;;;;5208395;26;20451;-69
2024/04/20 05:52:50;;;;;;;0.00;0.00;;;19.40;54.50;;;;;;5246754;26;20061;-70
2024/04/20 05:55:15;;;;;;;0.75;0.20;;;19.40;54.60;;;;;;5245256;26;20506;-70
2024/04/20 05:57:41;;;;;;;0.80;0.15;;;19.30;54.50;;;;;;5263771;26;20554;-69
2024/04/20 06:00:07;;;;;;;0.10;0.10;;;19.40;54.60;;;;;;5249648;26;20002;-66
2024/04/20 06:02:35;;;;;;;0.03;0.00;;;19.30;54.60;;;;;;5252678;26;20014;-69
2024/04/20 06:05:04;;;;;;;0.30;0.10;;;19.30;54.60;;;;;;5250671;26;19998;-70
2024/04/20 06:07:31;;;;;;;0.25;0.10;;;19.30;54.60;;;;;;5255739;26;20013;-67
2024/04/20 06:09:57;;;;;;;1.75;0.20;;;19.30;54.60;;;;;;5253453;26;20006;-71
2024/04/20 06:12:22;;;;;;;0.20;0.10;;;19.30;54.60;;;;;;5252289;26;20050;-68
2024/04/20 06:14:48;;;;;;;0.30;0.22;;;19.30;54.60;;;;;;5257689;26;20002;-70
2024/04/20 06:17:14;;;;;;;1.08;0.30;;;19.30;54.60;;;;;;5247984;26;20007;-65
2024/04/20 06:19:40;;;;;;;0.45;0.38;;;19.30;54.70;;;;;;5255237;26;20429;-65
2024/04/20 06:22:05;;;;;;;1.38;0.60;;;19.30;54.70;;;;;;5253154;26;20007;-65
2024/04/20 06:24:31;;;;;;;2.55;0.90;;;19.30;54.70;;;;;;5246889;26;20081;-67
2024/04/20 06:26:57;;;;;;;0.77;0.60;;;19.30;55.40;;;;;;5257336;26;20017;-69
2024/04/20 06:29:26;;;;;;;1.10;0.82;;;19.30;54.80;;;;;;5245683;26;20011;-68
2024/04/20 06:31:52;;;;;;;1.00;0.90;;;19.30;54.80;;;;;;5255976;26;20006;-70
2024/04/20 06:34:17;;;;;;;1.60;0.70;;;19.30;54.80;;;;;;5255274;26;20003;-67
2024/04/20 06:36:43;;;;;;;1.17;1.00;;;19.20;54.80;;;;;;5255949;26;20010;-69
2024/04/20 06:39:08;;;;;;;2.97;1.17;;;19.20;54.80;;;;;;5256863;26;20334;-68
2024/04/20 06:41:33;;;;;;;1.77;1.30;;;19.30;54.80;;;;;;5254711;26;20007;-69
2024/04/20 06:44:00;;;;;;;1.65;0.73;;;19.30;54.80;;;;;;5259587;26;20345;-68
2024/04/20 06:46:26;;;;;;;1.30;0.85;;;19.30;54.80;;;;;;5246201;26;20003;-69
2024/04/20 06:48:53;;;;;;;2.38;1.23;;;19.20;54.80;;;;;;5264204;26;20013;-68
2024/04/20 06:51:19;;;;;;;1.60;1.15;;;19.20;54.80;;;;;;5249624;26;20563;-69
2024/04/20 06:53:45;;;;;;;2.70;0.90;;;19.20;54.80;;;;;;5259349;26;20022;-68
2024/04/20 06:56:12;;;;;;;3.95;1.27;;;19.30;54.90;;;;;;5239134;26;20002;-68
2024/04/20 06:58:41;;;;;;;2.33;1.20;;;19.20;54.80;;;;;;5256278;26;20515;-68
2024/04/20 07:01:08;;;;;;;2.28;1.10;;;19.20;54.90;;;;;;5258830;26;20017;-67
2024/04/20 07:03:35;;;;;;;1.45;1.05;;;19.20;54.90;;;;;;5251916;26;20145;-69
2024/04/20 07:06:01;;;;;;;2.92;1.20;;;19.20;54.80;;;;;;5242123;26;20556;-69
2024/04/20 07:08:28;;;;;;;3.38;1.30;;;19.20;54.80;;;;;;5253629;26;20098;-70
2024/04/20 07:10:59;;;;;;;2.75;1.55;;;19.20;54.90;;;;;;5252592;26;20080;-69
2024/04/20 07:13:27;;;;;;;3.85;1.63;;;19.20;54.80;;;;;;5261033;26;20481;-68
2024/04/20 07:15:53;;;;;;;4.05;2.97;;;19.20;54.80;;;;;;5250730;26;20025;-68
2024/04/20 07:18:18;;;;;;;5.88;2.80;;;19.20;54.80;;;;;;5261089;26;20003;-69
2024/04/20 07:20:44;;;;;;;7.07;4.10;;;19.20;55.00;;;;;;5267953;26;20013;-68
2024/04/20 07:23:10;;;;;;;10.13;4.68;;;19.20;55.10;;;;;;5257144;26;20017;-68
2024/04/20 07:25:36;;;;;;;10.70;5.15;;;19.10;55.10;;;;;;5261392;26;20455;-69
2024/04/20 07:28:01;;;;;;;14.93;5.70;;;19.10;55.20;;;;;;5261140;26;20003;-69
2024/04/20 07:30:27;;;;;;;12.55;6.47;;;19.00;55.30;;;;;;5253006;26;20343;-68
2024/04/20 07:32:52;;;;;;;9.27;6.00;;;19.00;55.40;;;;;;5267686;26;20322;-69
2024/04/20 07:35:18;;;;;;;15.13;6.32;;;19.00;55.50;;;;;;5265259;26;20496;-68
2024/04/20 07:37:43;;;;;;;15.23;7.93;;;19.00;55.50;;;;;;5259306;26;20030;-69
2024/04/20 07:40:09;;;;;;;16.38;8.30;;;18.90;55.60;;;;;;5245221;26;20002;-68
2024/04/20 07:42:35;;;;;;;14.52;7.53;;;18.90;55.70;;;;;;5244047;26;20128;-68
2024/04/20 07:45:00;;;;;;;19.80;8.40;;;18.80;55.70;;;;;;5261252;26;20013;-69
2024/04/20 07:47:26;;;;;;;15.52;8.73;;;18.80;55.70;;;;;;5261070;26;20358;-69
2024/04/20 07:49:51;;;;;;;21.30;10.10;;;18.80;55.70;;;;;;5255888;26;20327;-69
2024/04/20 07:52:17;;;;;;;15.07;8.77;;;18.80;55.80;;;;;;5256554;26;20003;-69
2024/04/20 07:54:43;;;;;;;18.00;9.60;;;18.80;55.80;;;;;;5257704;26;20018;-68
2024/04/20 07:57:08;;;;;;;16.60;9.20;;;18.80;55.80;;;;;;5263548;26;19998;-68
2024/04/20 07:59:39;;;;;;;13.95;8.77;;;18.70;55.80;;;;;;5262232;26;20003;-68
2024/04/20 08:02:06;;;;;;;21.40;9.68;;;18.70;55.90;;;;;;5260361;26;20016;-69
2024/04/20 08:04:32;;;;;;;16.23;8.95;;;18.70;55.90;;;;;;5249692;26;20347;-68
2024/04/20 08:06:57;;;;;;;13.82;8.77;;;18.70;55.90;;;;;;5264868;26;20085;-68
2024/04/20 08:09:23;;;;;;;15.02;8.75;;;18.70;55.90;;;;;;5257301;26;20018;-69
2024/04/20 08:11:48;;;;;;;20.48;10.15;;;18.70;55.90;;;;;;5261592;26;20081;-69
2024/04/20 08:14:14;;;;;;;14.15;8.45;;;18.70;56.60;;;;;;5260182;26;20374;-68
2024/04/20 08:16:39;;;;;;;15.43;8.55;;;18.70;55.90;;;;;;5265057;26;20006;-68
2024/04/20 08:19:05;;;;;;;18.35;9.30;;;18.70;55.80;;;;;;5264308;26;20079;-68
2024/04/20 08:21:30;;;;;;;15.00;8.73;;;18.70;55.80;;;;;;5257106;26;20006;-68
2024/04/20 08:23:56;;;;;;;14.02;7.93;;;18.80;55.80;;;;;;5262907;26;20080;-68
2024/04/20 08:26:21;;;;;;;17.17;9.07;;;18.80;55.70;;;;;;5276437;26;20007;-69
2024/04/20 08:28:47;;;;;;;13.45;8.25;;;18.80;55.60;;;;;;5263037;26;20010;-68
2024/04/20 08:31:12;;;;;;;14.85;8.77;;;18.80;56.20;;;;;;5264159;26;19998;-69
2024/04/20 08:33:38;;;;;;;13.93;7.75;;;18.80;55.40;;;;;;5269218;26;20346;-69
2024/04/20 08:36:04;;;;;;;10.75;7.88;;;18.90;55.40;;;;;;5261477;26;20003;-69
2024/04/20 08:38:29;;;;;;;14.82;7.93;;;18.90;55.30;;;;;;5263355;26;20014;-66
2024/04/20 08:41:02;;;;;;;12.15;7.97;;;18.90;55.20;;;;;;5266340;26;20014;-69
2024/04/20 08:43:29;;;;;;;12.35;7.47;;;19.00;55.20;;;;;;5263319;26;20017;-68
2024/04/20 08:45:56;;;;;;;12.32;7.72;;;19.00;55.20;;;;;;5262814;26;20336;-69
2024/04/20 08:48:25;;;;;;;14.45;7.40;;;19.00;55.00;;;;;;5257719;26;20084;-68
2024/04/20 08:50:53;;;;;;;13.38;8.38;;;19.00;55.00;;;;;;5252906;26;20007;-69
2024/04/20 08:53:18;;;;;;;16.10;7.75;;;19.10;55.00;;;;;;5263858;26;20001;-68
2024/04/20 08:55:47;;;;;;;14.73;8.32;;;19.10;55.00;;;;;;5260720;26;20014;-67
2024/04/20 08:58:13;;;;;;;15.98;8.38;;;19.10;54.80;;;;;;5259689;26;20009;-69
2024/04/20 09:00:42;;;;;;;10.35;7.30;;;19.10;54.90;;;;;;5261204;26;20011;-68
2024/04/20 09:03:08;;;;;;;9.38;6.70;;;19.10;54.80;;;;;;5265915;26;20527;-68
2024/04/20 09:05:33;;;;;;;14.80;7.53;;;19.10;54.80;;;;;;5258341;26;20430;-68
2024/04/20 09:08:00;;;;;;;13.30;7.53;;;19.10;54.80;;;;;;5262370;26;20045;-68
2024/04/20 09:10:25;;;;;;;13.98;6.65;;;19.10;54.80;;;;;;5264461;26;20042;-69
2024/04/20 09:12:51;;;;;;;10.27;6.40;;;19.20;54.90;;;;;;5261285;26;20100;-68
2024/04/20 09:15:19;;;;;;;14.10;7.57;;;19.20;54.90;;;;;;5265153;26;20001;-69
2024/04/20 09:17:45;;;;;;;10.98;7.63;;;19.20;54.80;;;;;;5263364;26;20002;-69
2024/04/20 09:20:12;;;;;;;11.68;7.00;;;19.20;54.80;;;;;;5264770;26;20046;-70
2024/04/20 09:22:38;;;;;;;10.55;6.60;;;19.20;54.70;;;;;;5259783;26;20017;-68
2024/04/20 09:25:05;;;;;;;10.43;7.20;;;19.30;54.70;;;;;;5267006;26;20006;-69
2024/04/20 09:27:31;;;;;;;11.20;7.18;;;19.30;54.70;;;;;;5257585;26;20013;-68
2024/04/20 09:30:00;;;;;;;10.25;6.78;;;19.30;54.70;;;;;;5260052;26;20009;-69
2024/04/20 09:32:28;;;;;;;11.27;6.63;;;19.30;54.70;;;;;;5262312;26;20693;-68
2024/04/20 09:34:53;;;;;;;9.80;6.25;;;19.30;54.60;;;;;;5265497;26;19999;-69
2024/04/20 09:37:20;;;;;;;11.45;6.72;;;19.30;54.60;;;;;;5263476;26;20076;-69
2024/04/20 09:39:45;;;;;;;12.60;6.90;;;19.30;54.60;;;;;;5255861;26;20487;-69
2024/04/20 09:42:11;;;;;;;11.07;6.55;;;19.30;54.60;;;;;;5266131;26;20084;-68
2024/04/20 09:44:40;;;;;;;10.10;6.72;;;19.30;54.60;;;;;;5261122;26;20006;-69
2024/04/20 09:47:05;;;;;;;10.00;6.35;;;19.40;54.60;;;;;;5255447;26;20005;-69
2024/04/20 09:49:33;;;;;;;10.75;5.70;;;19.40;54.60;;;;;;5260611;26;20003;-69
2024/04/20 09:52:15;;;;;;;10.43;5.82;;;19.40;54.50;;;;;;5270834;26;20013;-69
2024/04/20 09:54:53;;;;;;;9.60;5.85;;;19.40;54.50;;;;;;5258915;26;20332;-67
2024/04/20 09:57:20;;;;;;;8.88;5.55;;;19.40;54.50;;;;;;5258815;26;20010;-68
2024/04/20 09:59:47;;;;;;;6.97;5.57;;;19.40;54.50;;;;;;5262795;26;20229;-69
2024/04/20 10:02:14;;;;;;;10.43;6.32;;;19.40;54.40;;;;;;5264130;26;20464;-69
2024/04/20 10:04:40;;;;;;;9.60;5.80;;;19.40;54.40;;;;;;5261507;26;20009;-70
2024/04/20 10:07:08;;;;;;;9.43;6.35;;;19.50;54.40;;;;;;5269999;26;20331;-69
2024/04/20 10:09:35;;;;;;;6.80;4.53;;;19.50;54.40;;;;;;5257089;26;20478;-68
2024/04/20 10:12:01;;;;;;;8.20;5.40;;;19.50;54.40;;;;;;5252648;26;20295;-69
2024/04/20 10:14:26;;;;;;;9.38;5.20;;;19.50;54.30;;;;;;5265187;26;20013;-69
2024/04/20 10:16:52;;;;;;;8.02;5.55;;;19.50;54.30;;;;;;5262403;26;20454;-69
2024/04/20 10:19:19;;;;;;;7.65;4.93;;;19.50;54.30;;;;;;5262735;26;20032;-68
2024/04/20 10:21:46;;;;;;;8.05;4.88;;;19.50;54.30;;;;;;5267795;26;20009;-69
2024/04/20 10:24:12;;;;;;;9.00;5.25;;;19.50;54.30;;;;;;5265283;26;20013;-69
2024/04/20 10:26:42;;;;;;;7.75;4.93;;;19.50;54.30;;;;;;5221064;26;20429;-68
2024/04/20 10:29:09;;;;;;;8.68;5.18;;;19.50;54.30;;;;;;5265567;26;20003;-68
2024/04/20 10:31:35;;;;;;;6.93;4.93;;;19.50;54.20;;;;;;5253402;26;20021;-69
2024/04/20 10:34:00;;;;;;;5.85;4.18;;;19.50;54.30;;;;;;5266458;26;19999;-69
2024/04/20 10:36:27;;;;;;;6.40;4.78;;;19.50;54.30;;;;;;5264448;26;20345;-67
2024/04/20 10:39:05;;;;;;;7.03;5.28;;;19.50;54.20;;;;;;5260843;26;20457;-69
2024/04/20 10:41:49;;;;;;;7.50;4.25;;;19.50;54.20;;;;;;5253461;26;20007;-69
2024/04/20 10:44:15;;;;;;;7.85;5.00;;;19.60;54.30;;;;;;5265616;26;20005;-67
2024/04/20 10:46:52;;;;;;;6.88;4.53;;;19.60;54.30;;;;;;5263117;26;20016;-70
2024/04/20 10:49:18;;;;;;;6.30;4.43;;;19.50;54.20;;;;;;5271535;26;20012;-69
2024/04/20 10:51:56;;;;;;;7.35;4.93;;;19.60;54.30;;;;;;5264503;26;20010;-70
2024/04/20 10:54:22;;;;;;;6.57;4.30;;;19.60;54.20;;;;;;5262210;26;20423;-70
2024/04/20 10:56:54;;;;;;;5.60;4.32;;;19.60;54.30;;;;;;5266714;26;20018;-70
2024/04/20 10:59:23;;;;;;;7.05;4.65;;;19.60;54.20;;;;;;5265088;26;20722;-70
2024/04/20 11:01:48;;;;;;;6.30;4.25;;;19.60;54.20;;;;;;5268227;26;20520;-70
2024/04/20 11:04:14;;;;;;;8.85;4.68;;;19.60;54.20;;;;;;5268739;26;20003;-69
2024/04/20 11:06:40;;;;;;;5.97;4.63;;;19.60;54.20;;;;;;5260271;26;20000;-70
2024/04/20 11:09:12;;;;;;;5.13;3.63;;;19.60;54.20;;;;;;5267302;26;20076;-70
2024/04/20 11:11:38;;;;;;;6.20;3.83;;;19.60;54.20;;;;;;5268748;26;20006;-70
2024/04/20 11:14:05;;;;;;;6.30;3.97;;;19.60;54.20;;;;;;5264194;26;20499;-70
2024/04/20 11:16:31;;;;;;;5.47;3.83;;;19.60;54.20;;;;;;5261677;26;20072;-69
2024/04/20 11:18:58;;;;;;;4.03;3.33;;;19.60;54.30;;;;;;5260417;26;20007;-70
2024/04/20 11:21:23;;;;;;;4.68;3.63;;;19.60;54.30;;;;;;5268791;26;20002;-70
2024/04/20 11:23:49;;;;;;;5.72;3.67;;;19.60;54.30;;;;;;5268073;26;20046;-70
2024/04/20 11:26:16;;;;;;;5.00;3.72;;;19.60;54.20;;;;;;5236884;26;20483;-70
2024/04/20 11:28:42;;;;;;;6.15;3.92;;;19.60;54.20;;;;;;5265709;26;20006;-70
2024/04/20 11:31:10;;;;;;;5.78;3.70;;;19.60;54.30;;;;;;5262074;26;20016;-68
2024/04/20 11:33:36;;;;;;;5.28;3.58;;;19.60;54.30;;;;;;5269232;26;20020;-71
2024/04/20 11:36:06;;;;;;;3.58;3.17;;;19.60;54.30;;;;;;5255467;26;20002;-70
2024/04/20 11:38:32;;;;;;;4.72;3.47;;;19.60;54.30;;;;;;5270875;26;20523;-68
2024/04/20 11:40:57;;;;;;;3.85;3.22;;;19.60;54.30;;;;;;5271403;26;20030;-70
2024/04/20 11:43:24;;;;;;;5.22;3.45;;;19.60;54.30;;;;;;5267616;26;20075;-70
2024/04/20 11:45:52;;;;;;;4.32;3.10;;;19.60;54.30;;;;;;5261282;26;20014;-70
2024/04/20 11:48:24;;;;;;;4.65;3.38;;;19.60;54.30;;;;;;5251254;26;20050;-70
2024/04/20 11:50:56;;;;;;;5.78;3.13;;;19.60;54.40;;;;;;5257100;26;20077;-70
2024/04/20 11:56:06;;;;;;;4.78;3.38;;;19.60;54.40;;;;;;5241511;26;20077;-69
2024/04/20 11:58:32;;;;;;;4.43;2.80;;;19.60;55.00;;;;;;5261589;26;20037;-68
2024/04/20 12:00:57;;;;;;;5.63;3.40;;;19.60;54.40;;;;;;5260513;26;20014;-70
2024/04/20 12:03:23;;;;;;;4.00;3.10;;;19.50;54.40;;;;;;5257608;26;20002;-70
2024/04/20 12:05:48;;;;;;;3.10;2.33;;;19.50;54.40;;;;;;5259095;26;20017;-70
2024/04/20 12:08:14;;;;;;;2.97;2.33;;;19.50;54.50;;;;;;5264723;26;20002;-69
2024/04/20 12:10:39;;;;;;;4.03;2.70;;;19.50;54.60;;;;;;5259675;26;19998;-68
2024/04/20 12:13:05;;;;;;;5.22;2.70;;;19.50;54.60;;;;;;5275075;26;20026;-70
2024/04/20 12:15:30;;;;;;;4.60;2.88;;;19.50;54.50;;;;;;5264544;26;20010;-69
2024/04/20 12:17:56;;;;;;;4.53;2.60;;;19.50;54.60;;;;;;5254421;26;20014;-70
2024/04/20 12:20:21;;;;;;;3.45;2.67;;;19.50;54.50;;;;;;5259850;26;20021;-70
2024/04/20 12:22:48;;;;;;;3.85;2.85;;;19.50;54.50;;;;;;5253351;26;20000;-69
2024/04/20 12:25:13;;;;;;;2.55;2.35;;;19.50;54.50;;;;;;5264845;26;20082;-70
2024/04/20 12:27:39;;;;;;;3.25;2.50;;;19.50;54.50;;;;;;5250503;26;20520;-70
2024/04/20 12:30:05;;;;;;;3.75;2.88;;;19.50;54.40;;;;;;5259453;26;20019;-70
2024/04/20 12:32:31;;;;;;;4.47;2.70;;;19.50;54.40;;;;;;5262693;26;20011;-70
2024/04/20 12:34:56;;;;;;;3.55;2.58;;;19.50;54.60;;;;;;5256835;26;20465;-70
2024/04/20 12:37:22;;;;;;;3.42;2.35;;;19.50;54.50;;;;;;5258898;26;20002;-70
2024/04/20 12:39:48;;;;;;;3.85;2.55;;;19.50;54.60;;;;;;5258445;26;20456;-70
2024/04/20 12:42:13;;;;;;;3.97;2.60;;;19.50;54.60;;;;;;5270003;26;20007;-68
2024/04/20 12:44:39;;;;;;;2.53;2.03;;;19.40;54.50;;;;;;5270790;26;20013;-70